sensor_id;sensor_type;location;lat;lon;timestamp;pressure;altitude;pressure_sealevel;temperature;humidity
73267;BME280;61495;53.400;7.608;2023-04-26T00:00:22;101658.00;;;4.63;80.01
73267;BME280;61495;53.400;7.608;2023-04-26T00:02:48;101653.53;;;4.63;77.51
73267;BME280;61495;53.400;7.608;2023-04-26T00:05:15;101653.53;;;4.63;77.15
73267;BME280;61495;53.400;7.608;2023-04-26T00:07:41;101642.38;;;4.60;77.05
73267;BME280;61495;53.400;7.608;2023-04-26T00:10:07;101654.34;;;4.64;77.21
73267;BME280;61495;53.400;7.608;2023-04-26T00:12:32;101640.41;;;4.62;77.18
73267;BME280;61495;53.400;7.608;2023-04-26T00:14:58;101647.53;;;4.61;77.60
73267;BME280;61495;53.400;7.608;2023-04-26T00:17:23;101634.72;;;4.57;77.25
73267;BME280;61495;53.400;7.608;2023-04-26T00:19:51;101648.81;;;4.57;77.77
73267;BME280;61495;53.400;7.608;2023-04-26T00:22:17;101648.81;;;4.57;77.52
73267;BME280;61495;53.400;7.608;2023-04-26T00:24:42;101641.16;;;4.54;78.45
73267;BME280;61495;53.400;7.608;2023-04-26T00:27:08;101646.59;;;4.53;77.38
73267;BME280;61495;53.400;7.608;2023-04-26T00:29:35;101650.22;;;4.52;77.35
73267;BME280;61495;53.400;7.608;2023-04-26T00:32:01;101647.72;;;4.50;77.30
73267;BME280;61495;53.400;7.608;2023-04-26T00:34:36;101646.06;;;4.49;78.23
73267;BME280;61495;53.400;7.608;2023-04-26T00:37:02;101631.44;;;4.45;78.02
73267;BME280;61495;53.400;7.608;2023-04-26T00:39:28;101627.09;;;4.44;79.79
73267;BME280;61495;53.400;7.608;2023-04-26T00:41:54;101636.28;;;4.49;78.52
73267;BME280;61495;53.400;7.608;2023-04-26T00:44:23;101629.47;;;4.47;80.66
73267;BME280;61495;53.400;7.608;2023-04-26T00:46:51;101630.72;;;4.43;79.90
73267;BME280;61495;53.400;7.608;2023-04-26T00:49:21;101636.44;;;4.48;78.61
73267;BME280;61495;53.400;7.608;2023-04-26T00:51:47;101634.75;;;4.47;78.85
73267;BME280;61495;53.400;7.608;2023-04-26T00:54:14;101644.41;;;4.48;79.00
73267;BME280;61495;53.400;7.608;2023-04-26T00:56:41;101636.44;;;4.48;79.00
73267;BME280;61495;53.400;7.608;2023-04-26T00:59:07;101637.13;;;4.50;79.44
73267;BME280;61495;53.400;7.608;2023-04-26T01:01:33;101630.13;;;4.49;79.54
73267;BME280;61495;53.400;7.608;2023-04-26T01:04:00;101629.00;;;4.52;79.00
73267;BME280;61495;53.400;7.608;2023-04-26T01:06:33;101630.00;;;4.51;79.05
73267;BME280;61495;53.400;7.608;2023-04-26T01:09:01;101623.69;;;4.52;79.06
73267;BME280;61495;53.400;7.608;2023-04-26T01:11:28;101635.16;;;4.52;79.42
73267;BME280;61495;53.400;7.608;2023-04-26T01:13:55;101635.16;;;4.52;79.17
73267;BME280;61495;53.400;7.608;2023-04-26T01:16:22;101641.28;;;4.53;79.17
73267;BME280;61495;53.400;7.608;2023-04-26T01:18:51;101654.13;;;4.57;79.72
73267;BME280;61495;53.400;7.608;2023-04-26T01:21:21;101655.22;;;4.55;79.74
73267;BME280;61495;53.400;7.608;2023-04-26T01:23:48;101653.41;;;4.55;79.98
73267;BME280;61495;53.400;7.608;2023-04-26T01:26:14;101645.75;;;4.52;79.53
73267;BME280;61495;53.400;7.608;2023-04-26T01:28:39;101641.16;;;4.54;79.81
73267;BME280;61495;53.400;7.608;2023-04-26T01:31:05;101641.84;;;4.56;79.49
73267;BME280;61495;53.400;7.608;2023-04-26T01:33:30;101632.34;;;4.54;79.55
73267;BME280;61495;53.400;7.608;2023-04-26T01:35:56;101639.84;;;4.58;79.65
73267;BME280;61495;53.400;7.608;2023-04-26T01:38:21;101644.88;;;4.61;80.12
73267;BME280;61495;53.400;7.608;2023-04-26T01:40:46;101633.59;;;4.59;79.36
73267;BME280;61495;53.400;7.608;2023-04-26T01:43:12;101641.25;;;4.62;79.10
73267;BME280;61495;53.400;7.608;2023-04-26T01:45:39;101637.91;;;4.60;79.34
73267;BME280;61495;53.400;7.608;2023-04-26T01:48:05;101638.22;;;4.57;78.65
73267;BME280;61495;53.400;7.608;2023-04-26T01:50:31;101637.06;;;4.60;78.60
73267;BME280;61495;53.400;7.608;2023-04-26T01:52:57;101635.69;;;4.56;78.48
73267;BME280;61495;53.400;7.608;2023-04-26T01:55:22;101634.84;;;4.55;78.19
73267;BME280;61495;53.400;7.608;2023-04-26T01:57:48;101639.19;;;4.56;78.17
73267;BME280;61495;53.400;7.608;2023-04-26T02:00:13;101635.44;;;4.49;78.25
73267;BME280;61495;53.400;7.608;2023-04-26T02:02:38;101632.94;;;4.47;78.04
73267;BME280;61495;53.400;7.608;2023-04-26T02:05:04;101635.72;;;4.46;77.67
73267;BME280;61495;53.400;7.608;2023-04-26T02:07:30;101631.19;;;4.38;77.65
73267;BME280;61495;53.400;7.608;2023-04-26T02:09:55;101635.81;;;4.36;77.68
73267;BME280;61495;53.400;7.608;2023-04-26T02:12:21;101637.75;;;4.34;78.07
73267;BME280;61495;53.400;7.608;2023-04-26T02:14:47;101642.50;;;4.31;77.66
73267;BME280;61495;53.400;7.608;2023-04-26T02:17:12;101650.38;;;4.23;79.34
73267;BME280;61495;53.400;7.608;2023-04-26T02:19:38;101645.22;;;4.21;78.36
73267;BME280;61495;53.400;7.608;2023-04-26T02:22:04;101652.88;;;4.24;78.88
73267;BME280;61495;53.400;7.608;2023-04-26T02:24:30;101641.03;;;4.19;79.60
73267;BME280;61495;53.400;7.608;2023-04-26T02:26:56;101642.59;;;4.12;81.01
73267;BME280;61495;53.400;7.608;2023-04-26T02:29:25;101639.78;;;4.13;78.97
73267;BME280;61495;53.400;7.608;2023-04-26T02:31:50;101641.47;;;4.14;79.19
73267;BME280;61495;53.400;7.608;2023-04-26T02:34:16;101649.25;;;4.16;79.71
73267;BME280;61495;53.400;7.608;2023-04-26T02:36:41;101649.59;;;4.13;79.95
73267;BME280;61495;53.400;7.608;2023-04-26T02:39:07;101660.78;;;4.07;82.38
73267;BME280;61495;53.400;7.608;2023-04-26T02:41:32;101655.75;;;4.04;82.08
73267;BME280;61495;53.400;7.608;2023-04-26T02:43:58;101653.78;;;4.06;82.28
73267;BME280;61495;53.400;7.608;2023-04-26T02:46:24;101646.66;;;4.06;82.59
73267;BME280;61495;53.400;7.608;2023-04-26T02:48:49;101651.81;;;4.08;81.79
73267;BME280;61495;53.400;7.608;2023-04-26T02:51:15;101641.09;;;4.09;83.30
73267;BME280;61495;53.400;7.608;2023-04-26T02:53:41;101637.31;;;4.12;82.62
73267;BME280;61495;53.400;7.608;2023-04-26T02:56:06;101623.06;;;4.13;81.09
73267;BME280;61495;53.400;7.608;2023-04-26T02:58:32;101626.25;;;4.16;80.98
73267;BME280;61495;53.400;7.608;2023-04-26T03:00:57;101630.41;;;4.19;80.62
73267;BME280;61495;53.400;7.608;2023-04-26T03:03:24;101631.25;;;4.19;81.16
73267;BME280;61495;53.400;7.608;2023-04-26T03:05:49;101629.16;;;4.23;80.73
73267;BME280;61495;53.400;7.608;2023-04-26T03:08:15;101626.78;;;4.20;80.70
73267;BME280;61495;53.400;7.608;2023-04-26T03:10:40;101638.06;;;4.22;80.61
73267;BME280;61495;53.400;7.608;2023-04-26T03:13:06;101648.69;;;4.22;80.68
73267;BME280;61495;53.400;7.608;2023-04-26T03:15:32;101654.53;;;4.25;81.00
73267;BME280;61495;53.400;7.608;2023-04-26T03:17:57;101657.47;;;4.22;84.34
73267;BME280;61495;53.400;7.608;2023-04-26T03:20:23;101659.47;;;4.11;84.67
73267;BME280;61495;53.400;7.608;2023-04-26T03:22:49;101627.38;;;4.14;83.58
73267;BME280;61495;53.400;7.608;2023-04-26T03:25:15;101624.44;;;4.17;83.82
73267;BME280;61495;53.400;7.608;2023-04-26T03:27:40;101629.72;;;4.17;83.22
73267;BME280;61495;53.400;7.608;2023-04-26T03:30:07;101623.16;;;4.21;81.76
73267;BME280;61495;53.400;7.608;2023-04-26T03:32:32;101629.16;;;4.23;82.12
73267;BME280;61495;53.400;7.608;2023-04-26T03:34:58;101627.19;;;4.25;81.54
73267;BME280;61495;53.400;7.608;2023-04-26T03:37:23;101620.22;;;4.24;81.80
73267;BME280;61495;53.400;7.608;2023-04-26T03:39:49;101619.50;;;4.22;81.23
73267;BME280;61495;53.400;7.608;2023-04-26T03:42:17;101626.06;;;4.27;80.57
73267;BME280;61495;53.400;7.608;2023-04-26T03:44:42;101624.53;;;4.25;80.93
73267;BME280;61495;53.400;7.608;2023-04-26T03:47:07;101625.25;;;4.27;80.93
73267;BME280;61495;53.400;7.608;2023-04-26T03:49:33;101620.22;;;4.24;81.49
73267;BME280;61495;53.400;7.608;2023-04-26T03:51:58;101623.56;;;4.26;81.05
73267;BME280;61495;53.400;7.608;2023-04-26T03:54:24;101623.84;;;4.23;81.32
73267;BME280;61495;53.400;7.608;2023-04-26T03:56:49;101622.03;;;4.23;82.19
73267;BME280;61495;53.400;7.608;2023-04-26T03:59:15;101625.81;;;4.21;81.48
73267;BME280;61495;53.400;7.608;2023-04-26T04:01:40;101618.72;;;4.21;82.48
73267;BME280;61495;53.400;7.608;2023-04-26T04:04:06;101617.31;;;4.17;82.96
73267;BME280;61495;53.400;7.608;2023-04-26T04:06:31;101623.84;;;4.23;81.74
73267;BME280;61495;53.400;7.608;2023-04-26T04:08:57;101629.81;;;4.25;82.29
73267;BME280;61495;53.400;7.608;2023-04-26T04:11:22;101629.16;;;4.23;83.03
73267;BME280;61495;53.400;7.608;2023-04-26T04:13:48;101629.16;;;4.23;82.43
73267;BME280;61495;53.400;7.608;2023-04-26T04:16:13;101635.97;;;4.25;83.84
73267;BME280;61495;53.400;7.608;2023-04-26T04:18:39;101626.13;;;4.18;84.63
73267;BME280;61495;53.400;7.608;2023-04-26T04:21:04;101628.31;;;4.22;83.28
73267;BME280;61495;53.400;7.608;2023-04-26T04:23:30;101616.34;;;4.18;83.22
73267;BME280;61495;53.400;7.608;2023-04-26T04:25:56;101621.88;;;4.25;82.23
73267;BME280;61495;53.400;7.608;2023-04-26T04:28:21;101623.16;;;4.21;81.97
73267;BME280;61495;53.400;7.608;2023-04-26T04:30:48;101636.38;;;4.30;81.93
73267;BME280;61495;53.400;7.608;2023-04-26T04:33:14;101637.50;;;4.28;81.68
73267;BME280;61495;53.400;7.608;2023-04-26T04:35:41;101637.19;;;4.31;80.92
73267;BME280;61495;53.400;7.608;2023-04-26T04:38:07;101622.59;;;4.27;80.54
73267;BME280;61495;53.400;7.608;2023-04-26T04:40:33;101635.25;;;4.33;80.53
73267;BME280;61495;53.400;7.608;2023-04-26T04:42:58;101632.75;;;4.31;79.94
73267;BME280;61495;53.400;7.608;2023-04-26T04:45:25;101631.91;;;4.31;79.77
73267;BME280;61495;53.400;7.608;2023-04-26T04:47:51;101641.53;;;4.32;79.55
73267;BME280;61495;53.400;7.608;2023-04-26T04:50:18;101639.84;;;4.31;79.61
73267;BME280;61495;53.400;7.608;2023-04-26T04:52:44;101629.81;;;4.25;79.76
73267;BME280;61495;53.400;7.608;2023-04-26T04:55:10;101636.38;;;4.30;79.75
73267;BME280;61495;53.400;7.608;2023-04-26T04:57:35;101635.13;;;4.25;79.54
73267;BME280;61495;53.400;7.608;2023-04-26T05:00:02;101640.72;;;4.22;80.00
73267;BME280;61495;53.400;7.608;2023-04-26T05:02:34;101635.59;;;4.20;80.08
73267;BME280;61495;53.400;7.608;2023-04-26T05:04:59;101654.69;;;4.24;79.59
73267;BME280;61495;53.400;7.608;2023-04-26T05:07:26;101654.53;;;4.25;80.27
73267;BME280;61495;53.400;7.608;2023-04-26T05:09:51;101648.81;;;4.30;80.30
73267;BME280;61495;53.400;7.608;2023-04-26T05:12:19;101648.22;;;4.36;80.06
73267;BME280;61495;53.400;7.608;2023-04-26T05:14:45;101633.66;;;4.40;80.79
73267;BME280;61495;53.400;7.608;2023-04-26T05:17:10;101645.34;;;4.57;80.35
73267;BME280;61495;53.400;7.608;2023-04-26T05:19:36;101649.66;;;4.75;80.56
73267;BME280;61495;53.400;7.608;2023-04-26T05:22:01;101646.66;;;4.88;80.66
73267;BME280;61495;53.400;7.608;2023-04-26T05:24:28;101648.50;;;5.05;80.99
73267;BME280;61495;53.400;7.608;2023-04-26T05:26:59;101643.13;;;5.15;80.43
73267;BME280;61495;53.400;7.608;2023-04-26T05:29:28;101647.97;;;5.37;80.26
73267;BME280;61495;53.400;7.608;2023-04-26T05:31:54;101651.75;;;5.52;81.12
73267;BME280;61495;53.400;7.608;2023-04-26T05:34:19;101643.53;;;5.63;80.46
73267;BME280;61495;53.400;7.608;2023-04-26T05:36:45;101646.53;;;5.86;80.51
73267;BME280;61495;53.400;7.608;2023-04-26T05:39:10;101634.69;;;6.06;79.97
73267;BME280;61495;53.400;7.608;2023-04-26T05:41:36;101637.72;;;6.11;80.48
73267;BME280;61495;53.400;7.608;2023-04-26T05:44:02;101640.66;;;6.34;80.82
73267;BME280;61495;53.400;7.608;2023-04-26T05:46:27;101648.25;;;6.62;79.90
73267;BME280;61495;53.400;7.608;2023-04-26T05:48:53;101652.31;;;6.83;79.43
73267;BME280;61495;53.400;7.608;2023-04-26T05:51:19;101656.69;;;7.00;78.71
73267;BME280;61495;53.400;7.608;2023-04-26T05:53:45;101653.00;;;7.01;78.23
73267;BME280;61495;53.400;7.608;2023-04-26T05:56:10;101659.06;;;7.27;77.91
73267;BME280;61495;53.400;7.608;2023-04-26T05:58:36;101667.06;;;7.35;77.73
73267;BME280;61495;53.400;7.608;2023-04-26T06:01:01;101662.09;;;7.48;77.51
73267;BME280;61495;53.400;7.608;2023-04-26T06:03:27;101661.06;;;7.57;77.61
73267;BME280;61495;53.400;7.608;2023-04-26T06:05:52;101663.06;;;7.71;77.43
73267;BME280;61495;53.400;7.608;2023-04-26T06:08:17;101667.22;;;7.98;76.89
73267;BME280;61495;53.400;7.608;2023-04-26T06:10:43;101662.84;;;8.05;76.80
73267;BME280;61495;53.400;7.608;2023-04-26T06:13:11;101670.16;;;8.11;75.85
73267;BME280;61495;53.400;7.608;2023-04-26T06:15:37;101664.16;;;8.17;76.37
73267;BME280;61495;53.400;7.608;2023-04-26T06:18:04;101665.50;;;8.13;75.05
73267;BME280;61495;53.400;7.608;2023-04-26T06:20:30;101671.13;;;8.26;75.08
73267;BME280;61495;53.400;7.608;2023-04-26T06:22:56;101677.09;;;8.53;75.14
73267;BME280;61495;53.400;7.608;2023-04-26T06:25:21;101674.69;;;8.66;75.14
73267;BME280;61495;53.400;7.608;2023-04-26T06:27:46;101673.56;;;8.60;74.40
73267;BME280;61495;53.400;7.608;2023-04-26T06:30:12;101672.69;;;8.68;73.97
73267;BME280;61495;53.400;7.608;2023-04-26T06:32:39;101677.41;;;8.97;74.19
73267;BME280;61495;53.400;7.608;2023-04-26T06:35:05;101677.16;;;9.06;72.64
73267;BME280;61495;53.400;7.608;2023-04-26T06:37:31;101671.22;;;9.19;73.19
73267;BME280;61495;53.400;7.608;2023-04-26T06:39:56;101673.38;;;9.23;71.86
73267;BME280;61495;53.400;7.608;2023-04-26T06:42:22;101669.22;;;9.43;71.77
73267;BME280;61495;53.400;7.608;2023-04-26T06:44:47;101673.91;;;9.41;69.87
73267;BME280;61495;53.400;7.608;2023-04-26T06:47:13;101678.06;;;9.67;71.29
73267;BME280;61495;53.400;7.608;2023-04-26T06:49:38;101679.84;;;9.89;70.95
73267;BME280;61495;53.400;7.608;2023-04-26T06:52:04;101672.50;;;10.05;69.54
73267;BME280;61495;53.400;7.608;2023-04-26T06:54:31;101677.34;;;10.39;70.16
73267;BME280;61495;53.400;7.608;2023-04-26T06:56:57;101678.94;;;10.34;68.51
73267;BME280;61495;53.400;7.608;2023-04-26T06:59:22;101677.34;;;10.39;68.20
73267;BME280;61495;53.400;7.608;2023-04-26T07:01:48;101678.38;;;10.24;67.10
73267;BME280;61495;53.400;7.608;2023-04-26T07:04:13;101678.28;;;10.17;68.21
73267;BME280;61495;53.400;7.608;2023-04-26T07:06:41;101682.53;;;10.55;67.85
73267;BME280;61495;53.400;7.608;2023-04-26T07:09:06;101686.06;;;10.41;67.50
73267;BME280;61495;53.400;7.608;2023-04-26T07:11:32;101672.81;;;10.25;67.76
73267;BME280;61495;53.400;7.608;2023-04-26T07:13:57;101679.66;;;10.13;66.54
73267;BME280;61495;53.400;7.608;2023-04-26T07:16:23;101698.53;;;9.97;65.92
73267;BME280;61495;53.400;7.608;2023-04-26T07:18:48;101705.34;;;9.85;67.13
73267;BME280;61495;53.400;7.608;2023-04-26T07:21:14;101705.09;;;9.72;67.30
73267;BME280;61495;53.400;7.608;2023-04-26T07:23:40;101700.47;;;9.66;67.09
73267;BME280;61495;53.400;7.608;2023-04-26T07:26:05;101710.31;;;9.65;67.66
73267;BME280;61495;53.400;7.608;2023-04-26T07:28:32;101716.16;;;9.69;67.92
73267;BME280;61495;53.400;7.608;2023-04-26T07:30:58;101713.16;;;9.49;66.94
73267;BME280;61495;53.400;7.608;2023-04-26T07:33:24;101714.28;;;9.32;67.43
73267;BME280;61495;53.400;7.608;2023-04-26T07:35:57;101721.69;;;9.22;68.32
73267;BME280;61495;53.400;7.608;2023-04-26T07:38:24;101701.97;;;9.23;69.01
73267;BME280;61495;53.400;7.608;2023-04-26T07:40:50;101713.78;;;9.28;68.95
73267;BME280;61495;53.400;7.608;2023-04-26T07:43:16;101706.91;;;9.34;69.17
73267;BME280;61495;53.400;7.608;2023-04-26T07:45:42;101713.91;;;9.58;71.06
73267;BME280;61495;53.400;7.608;2023-04-26T07:48:07;101701.06;;;9.76;71.72
73267;BME280;61495;53.400;7.608;2023-04-26T07:50:33;101713.56;;;9.98;71.76
73267;BME280;61495;53.400;7.608;2023-04-26T07:52:58;101702.66;;;10.22;71.34
73267;BME280;61495;53.400;7.608;2023-04-26T07:55:24;101705.28;;;10.30;70.72
73267;BME280;61495;53.400;7.608;2023-04-26T07:57:50;101709.06;;;10.50;71.11
73267;BME280;61495;53.400;7.608;2023-04-26T08:00:15;101709.88;;;10.66;70.66
73267;BME280;61495;53.400;7.608;2023-04-26T08:02:41;101712.69;;;10.93;70.51
73267;BME280;61495;53.400;7.608;2023-04-26T08:05:07;101710.22;;;11.28;71.96
73267;BME280;61495;53.400;7.608;2023-04-26T08:07:33;101710.03;;;11.50;69.36
73267;BME280;61495;53.400;7.608;2023-04-26T08:09:58;101709.97;;;11.44;68.13
73267;BME280;61495;53.400;7.608;2023-04-26T08:12:33;101721.31;;;11.60;68.65
73267;BME280;61495;53.400;7.608;2023-04-26T08:15:00;101722.94;;;11.19;66.06
73267;BME280;61495;53.400;7.608;2023-04-26T08:17:25;101722.22;;;10.96;64.87
73267;BME280;61495;53.400;7.608;2023-04-26T08:19:51;101727.44;;;10.83;65.15
73267;BME280;61495;53.400;7.608;2023-04-26T08:22:17;101732.78;;;10.83;64.73
73267;BME280;61495;53.400;7.608;2023-04-26T08:24:50;101740.09;;;10.89;64.15
73267;BME280;61495;53.400;7.608;2023-04-26T08:27:16;101729.63;;;10.94;64.15
73267;BME280;61495;53.400;7.608;2023-04-26T08:29:43;101733.94;;;11.09;64.59
73267;BME280;61495;53.400;7.608;2023-04-26T08:32:08;101729.03;;;11.13;64.55
73267;BME280;61495;53.400;7.608;2023-04-26T08:34:34;101735.53;;;11.40;65.88
73267;BME280;61495;53.400;7.608;2023-04-26T08:36:59;101739.50;;;11.65;64.41
73267;BME280;61495;53.400;7.608;2023-04-26T08:39:25;101744.31;;;11.91;65.46
73267;BME280;61495;53.400;7.608;2023-04-26T08:41:52;101745.06;;;12.06;64.10
73267;BME280;61495;53.400;7.608;2023-04-26T08:44:23;101746.09;;;12.05;63.30
73267;BME280;61495;53.400;7.608;2023-04-26T08:51:59;101752.84;;;12.22;59.90
73267;BME280;61495;53.400;7.608;2023-04-26T08:54:24;101748.44;;;12.42;61.55
73267;BME280;61495;53.400;7.608;2023-04-26T08:56:50;101731.75;;;12.47;60.45
73267;BME280;61495;53.400;7.608;2023-04-26T08:59:17;101744.13;;;12.48;59.24
73267;BME280;61495;53.400;7.608;2023-04-26T09:01:43;101739.03;;;12.59;59.29
73267;BME280;61495;53.400;7.608;2023-04-26T09:04:09;101740.78;;;12.73;59.27
73267;BME280;61495;53.400;7.608;2023-04-26T09:06:35;101732.19;;;12.91;60.80
73267;BME280;61495;53.400;7.608;2023-04-26T09:09:02;101748.34;;;12.91;58.88
73267;BME280;61495;53.400;7.608;2023-04-26T09:11:51;101738.38;;;12.85;59.14
73267;BME280;61495;53.400;7.608;2023-04-26T09:14:20;101737.75;;;12.90;59.17
73267;BME280;61495;53.400;7.608;2023-04-26T09:16:45;101744.00;;;12.62;58.19
73267;BME280;61495;53.400;7.608;2023-04-26T09:19:10;101742.22;;;12.69;57.95
73267;BME280;61495;53.400;7.608;2023-04-26T09:21:43;101744.84;;;12.63;58.45
73267;BME280;61495;53.400;7.608;2023-04-26T09:24:10;101749.16;;;12.92;59.83
73267;BME280;61495;53.400;7.608;2023-04-26T09:26:35;101743.34;;;12.95;60.13
73267;BME280;61495;53.400;7.608;2023-04-26T09:29:18;101762.53;;;12.78;58.58
73267;BME280;61495;53.400;7.608;2023-04-26T09:31:47;101765.75;;;12.61;59.07
73267;BME280;61495;53.400;7.608;2023-04-26T09:34:13;101767.84;;;12.38;58.67
73267;BME280;61495;53.400;7.608;2023-04-26T09:37:05;101780.63;;;12.29;59.83
73267;BME280;61495;53.400;7.608;2023-04-26T09:39:38;101779.34;;;12.04;59.33
73267;BME280;61495;53.400;7.608;2023-04-26T09:42:05;101773.91;;;11.97;59.94
73267;BME280;61495;53.400;7.608;2023-04-26T09:44:31;101774.66;;;11.85;60.34
73267;BME280;61495;53.400;7.608;2023-04-26T09:47:04;101774.75;;;11.77;61.43
73267;BME280;61495;53.400;7.608;2023-04-26T09:49:32;101769.13;;;11.72;62.40
73267;BME280;61495;53.400;7.608;2023-04-26T09:52:05;101770.22;;;11.77;61.70
73267;BME280;61495;53.400;7.608;2023-04-26T09:54:41;101770.50;;;11.67;62.69
73267;BME280;61495;53.400;7.608;2023-04-26T09:57:07;101769.13;;;11.72;62.44
73267;BME280;61495;53.400;7.608;2023-04-26T09:59:40;101771.97;;;11.85;63.63
73267;BME280;61495;53.400;7.608;2023-04-26T10:02:29;101771.16;;;11.91;64.23
73267;BME280;61495;53.400;7.608;2023-04-26T10:04:55;101766.28;;;12.22;67.79
73267;BME280;61495;53.400;7.608;2023-04-26T10:07:23;101771.06;;;12.26;65.48
73267;BME280;61495;53.400;7.608;2023-04-26T10:09:49;101772.25;;;12.45;65.67
73267;BME280;61495;53.400;7.608;2023-04-26T10:12:17;101770.72;;;12.36;62.94
73267;BME280;61495;53.400;7.608;2023-04-26T10:14:44;101768.19;;;12.28;62.69
73267;BME280;61495;53.400;7.608;2023-04-26T10:17:11;101771.16;;;12.12;62.64
73267;BME280;61495;53.400;7.608;2023-04-26T10:19:38;101775.25;;;12.29;61.39
73267;BME280;61495;53.400;7.608;2023-04-26T10:22:05;101769.75;;;12.16;59.04
73267;BME280;61495;53.400;7.608;2023-04-26T10:24:33;101773.19;;;12.31;60.14
73267;BME280;61495;53.400;7.608;2023-04-26T10:26:59;101770.59;;;12.16;60.35
73267;BME280;61495;53.400;7.608;2023-04-26T10:32:19;101762.69;;;12.15;61.16
73267;BME280;61495;53.400;7.608;2023-04-26T10:35:08;101772.66;;;12.21;61.23
73267;BME280;61495;53.400;7.608;2023-04-26T10:37:34;101767.25;;;12.14;60.12
73267;BME280;61495;53.400;7.608;2023-04-26T10:40:23;101762.22;;;12.05;60.34
73267;BME280;61495;53.400;7.608;2023-04-26T10:42:48;101765.28;;;12.30;60.78
73267;BME280;61495;53.400;7.608;2023-04-26T10:45:28;101767.41;;;12.34;59.87
73267;BME280;61495;53.400;7.608;2023-04-26T10:58:47;101765.28;;;12.23;57.83
73267;BME280;61495;53.400;7.608;2023-04-26T11:01:18;101762.81;;;12.28;59.03
73267;BME280;61495;53.400;7.608;2023-04-26T11:06:23;101754.50;;;12.51;59.16
73267;BME280;61495;53.400;7.608;2023-04-26T11:08:49;101757.84;;;12.53;58.13
73267;BME280;61495;53.400;7.608;2023-04-26T11:11:16;101760.53;;;12.53;57.41
73267;BME280;61495;53.400;7.608;2023-04-26T11:13:49;101767.97;;;12.57;58.53
73267;BME280;61495;53.400;7.608;2023-04-26T11:16:16;101767.81;;;12.59;58.01
73267;BME280;61495;53.400;7.608;2023-04-26T11:18:43;101766.31;;;12.56;58.21
73267;BME280;61495;53.400;7.608;2023-04-26T11:21:09;101770.88;;;12.56;58.49
73267;BME280;61495;53.400;7.608;2023-04-26T11:23:36;101772.25;;;12.45;59.88
73267;BME280;61495;53.400;7.608;2023-04-26T11:26:03;101772.00;;;12.40;59.09
73267;BME280;61495;53.400;7.608;2023-04-26T11:28:34;101767.81;;;12.31;60.49
73267;BME280;61495;53.400;7.608;2023-04-26T11:30:59;101770.97;;;12.13;61.37
73267;BME280;61495;53.400;7.608;2023-04-26T11:33:26;101766.47;;;12.20;59.78
73267;BME280;61495;53.400;7.608;2023-04-26T11:35:53;101781.38;;;12.23;60.61
73267;BME280;61495;53.400;7.608;2023-04-26T11:38:26;101782.94;;;12.11;60.66
73267;BME280;61495;53.400;7.608;2023-04-26T11:43:39;101783.88;;;12.03;60.64
73267;BME280;61495;53.400;7.608;2023-04-26T11:46:06;101789.47;;;12.02;61.01
73267;BME280;61495;53.400;7.608;2023-04-26T11:48:33;101791.88;;;11.97;61.12
73267;BME280;61495;53.400;7.608;2023-04-26T11:51:02;101789.59;;;11.73;61.58
73267;BME280;61495;53.400;7.608;2023-04-26T11:53:38;101798.81;;;11.49;60.64
73267;BME280;61495;53.400;7.608;2023-04-26T11:56:13;101793.66;;;11.33;60.03
73267;BME280;61495;53.400;7.608;2023-04-26T11:58:46;101810.22;;;11.22;61.83
73267;BME280;61495;53.400;7.608;2023-04-26T12:01:19;101806.72;;;11.21;62.33
73267;BME280;61495;53.400;7.608;2023-04-26T12:03:51;101813.81;;;11.29;62.29
73267;BME280;61495;53.400;7.608;2023-04-26T12:06:18;101818.06;;;11.23;62.99
73267;BME280;61495;53.400;7.608;2023-04-26T12:08:50;101825.59;;;11.28;63.18
73267;BME280;61495;53.400;7.608;2023-04-26T12:11:17;101815.97;;;11.04;63.62
73267;BME280;61495;53.400;7.608;2023-04-26T12:13:45;101822.81;;;10.92;64.97
73267;BME280;61495;53.400;7.608;2023-04-26T12:16:12;101820.97;;;10.78;65.32
73267;BME280;61495;53.400;7.608;2023-04-26T12:18:39;101814.09;;;10.60;65.88
73267;BME280;61495;53.400;7.608;2023-04-26T12:21:05;101805.16;;;10.53;65.33
73267;BME280;61495;53.400;7.608;2023-04-26T12:23:38;101811.97;;;10.56;65.45
73267;BME280;61495;53.400;7.608;2023-04-26T12:26:04;101813.47;;;10.73;65.51
73267;BME280;61495;53.400;7.608;2023-04-26T12:28:30;101819.31;;;10.77;65.30
73267;BME280;61495;53.400;7.608;2023-04-26T12:30:55;101817.72;;;10.82;65.96
73267;BME280;61495;53.400;7.608;2023-04-26T12:33:21;101820.88;;;10.86;66.67
73267;BME280;61495;53.400;7.608;2023-04-26T12:35:50;101822.09;;;10.83;67.45
73267;BME280;61495;53.400;7.608;2023-04-26T12:38:16;101811.72;;;10.80;67.23
73267;BME280;61495;53.400;7.608;2023-04-26T12:40:42;101819.75;;;10.66;67.60
73267;BME280;61495;53.400;7.608;2023-04-26T12:43:08;101809.22;;;10.79;67.84
73267;BME280;61495;53.400;7.608;2023-04-26T12:45:34;101805.16;;;10.97;67.97
73267;BME280;61495;53.400;7.608;2023-04-26T12:47:59;101804.31;;;10.97;68.82
73267;BME280;61495;53.400;7.608;2023-04-26T12:50:25;101801.16;;;11.08;66.95
73267;BME280;61495;53.400;7.608;2023-04-26T12:52:51;101797.75;;;11.14;67.03
73267;BME280;61495;53.400;7.608;2023-04-26T12:55:19;101794.63;;;11.10;65.01
73267;BME280;61495;53.400;7.608;2023-04-26T12:57:45;101802.09;;;11.15;65.57
73267;BME280;61495;53.400;7.608;2023-04-26T13:00:15;101800.88;;;11.18;66.14
73267;BME280;61495;53.400;7.608;2023-04-26T13:02:42;101802.53;;;11.33;65.50
73267;BME280;61495;53.400;7.608;2023-04-26T13:05:08;101805.13;;;11.27;64.87
73267;BME280;61495;53.400;7.608;2023-04-26T13:07:35;101804.09;;;11.42;64.44
73267;BME280;61495;53.400;7.608;2023-04-26T13:10:02;101807.78;;;11.41;62.84
73267;BME280;61495;53.400;7.608;2023-04-26T13:12:28;101809.56;;;11.34;62.65
73267;BME280;61495;53.400;7.608;2023-04-26T13:14:54;101808.69;;;11.48;63.65
73267;BME280;61495;53.400;7.608;2023-04-26T13:17:21;101802.72;;;11.67;65.91